F/V Kadege — FOWB — position and weather

sailwx.info

Track history (hours):
 
Tides and Currents Weather Stations Pressure Air Temp Water Temp Dewpoint Dewpoint Depression Visibility Wind Speed Wind Dir Waves Ship Positions

F/V Kadege

Last reported at 2018-Jun-17 07:56 UTC. Time now 2018-Jun-18 00:19 UTC.
Position N 48°22' W 004°47'.

Length 15 m; draft 3 m.

Type: Fishing. MMSI: 226084000.

Date/timePositionNaut miles runAvg speedWind from/ knotsBaromVisibWave heightAir tempDewpointWater temp
2018-Jun-17 07:56N 48°22' W 004°47'0 0.0
2018-Jun-16 08:37N 48°22' W 004°47'0 0.2
2018-Jun-16 08:22N 48°22' W 004°47'0 0.0
2018-Jun-16 08:00N 48°22' W 004°47'0 0.1
2018-Jun-16 07:30N 48°22' W 004°47'0 0.0
2018-Jun-16 07:00N 48°22' W 004°47'0 0.0
2018-Jun-16 06:30N 48°22' W 004°47'0 0.0
2018-Jun-16 06:00N 48°22' W 004°47'0 0.0
2018-Jun-16 05:30N 48°22' W 004°47'0 0.0
2018-Jun-16 05:00N 48°22' W 004°47'  
2018-Jun-13 10:46N 48°22' W 004°47'0 0.0
2018-Jun-12 15:25N 48°22' W 004°47'1 3.3
2018-Jun-12 15:00N 48°22' W 004°49'4 8.5
2018-Jun-12 14:30N 48°21' W 004°55'14 1.2
2018-Jun-12 02:54N 48°16' W 005°15'3 7.8
2018-Jun-12 02:29N 48°17' W 005°10'4 7.9
2018-Jun-12 02:00N 48°17' W 005°05'4 8.1
2018-Jun-12 01:30N 48°18' W 004°59'4 8.0
2018-Jun-12 01:00N 48°19' W 004°53'4 7.3
2018-Jun-12 00:30N 48°21' W 004°48'1 0.1
2018-Jun-11 12:45N 48°22' W 004°47'0 0.1
2018-Jun-11 12:30N 48°22' W 004°47'3 5.4
2018-Jun-11 12:00N 48°20' W 004°50'4 8.7
2018-Jun-11 11:30N 48°20' W 004°57'17 1.8
2018-Jun-11 02:22N 48°26' W 005°19'4 8.5
2018-Jun-11 01:50N 48°25' W 005°13'3 9.4
2018-Jun-11 01:30N 48°24' W 005°08'5 9.3
2018-Jun-11 01:00N 48°22' W 005°02'4 8.7
2018-Jun-11 00:30N 48°22' W 004°56'4 7.9
2018-Jun-11 00:00N 48°22' W 004°50'2 0.2
2018-Jun-10 14:50N 48°22' W 004°47'5 5.6
2018-Jun-10 14:00N 48°22' W 004°54'6 0.5
2018-Jun-10 01:34N 48°19' W 005°02'1 8.4
2018-Jun-10 01:30N 48°19' W 005°01'4 8.6
2018-Jun-10 01:00N 48°19' W 004°55'4 8.4
2018-Jun-10 00:30N 48°21' W 004°49'2 0.2
2018-Jun-09 14:31N 48°22' W 004°47'0 0.1
2018-Jun-09 14:29N 48°22' W 004°47'0 0.0
2018-Jun-09 13:59N 48°22' W 004°47'4 7.4
2018-Jun-09 13:30N 48°22' W 004°52'4 8.1
2018-Jun-09 12:57N 48°22' W 004°59'5 0.4
2018-Jun-09 01:41N 48°23' W 005°06'2 8.9
2018-Jun-09 01:26N 48°22' W 005°03'4 8.9
2018-Jun-09 01:00N 48°21' W 004°58'5 9.4
2018-Jun-09 00:30N 48°22' W 004°51'2 0.2
2018-Jun-08 14:27N 48°22' W 004°47'1 2.5
2018-Jun-08 14:00N 48°22' W 004°48'4 8.1
2018-Jun-08 13:30N 48°22' W 004°55'10 0.9
2018-Jun-08 02:01N 48°17' W 005°09'0 8.9
2018-Jun-08 01:58N 48°17' W 005°08'4 8.9
2018-Jun-08 01:30N 48°18' W 005°02'4 8.8
2018-Jun-08 01:00N 48°19' W 004°56'5 9.2
2018-Jun-08 00:30N 48°21' W 004°49'2 0.2
2018-Jun-07 14:54N 48°22' W 004°47'1 2.5
2018-Jun-07 14:30N 48°22' W 004°48'4 8.1
2018-Jun-07 14:00N 48°22' W 004°54'4 8.3
2018-Jun-07 13:30N 48°22' W 005°01'5 9.0
2018-Jun-07 13:00N 48°24' W 005°07'  
Track history (hours):
 
Tides and Currents Weather Stations Pressure Air Temp Water Temp Dewpoint Dewpoint Depression Visibility Wind Speed Wind Dir Waves Ship Positions

F/V Kadege

Last reported at 2018-Jun-17 07:56 UTC. Time now 2018-Jun-18 00:19 UTC.
Position N 48°22' W 004°47'.

Length 15 m; draft 3 m.

Type: Fishing. MMSI: 226084000.

Date/timePositionNaut miles runAvg speedWind from/ knotsBaromVisibWave heightAir tempDewpointWater temp
2018-Jun-17 07:56N 48°22' W 004°47'0 0.0
2018-Jun-16 08:37N 48°22' W 004°47'0 0.2
2018-Jun-16 08:22N 48°22' W 004°47'0 0.0
2018-Jun-16 08:00N 48°22' W 004°47'0 0.1
2018-Jun-16 07:30N 48°22' W 004°47'0 0.0
2018-Jun-16 07:00N 48°22' W 004°47'0 0.0
2018-Jun-16 06:30N 48°22' W 004°47'0 0.0
2018-Jun-16 06:00N 48°22' W 004°47'0 0.0
2018-Jun-16 05:30N 48°22' W 004°47'0 0.0
2018-Jun-16 05:00N 48°22' W 004°47'  
2018-Jun-13 10:46N 48°22' W 004°47'0 0.0
2018-Jun-12 15:25N 48°22' W 004°47'1 3.3
2018-Jun-12 15:00N 48°22' W 004°49'4 8.5
2018-Jun-12 14:30N 48°21' W 004°55'14 1.2
2018-Jun-12 02:54N 48°16' W 005°15'3 7.8
2018-Jun-12 02:29N 48°17' W 005°10'4 7.9
2018-Jun-12 02:00N 48°17' W 005°05'4 8.1
2018-Jun-12 01:30N 48°18' W 004°59'4 8.0
2018-Jun-12 01:00N 48°19' W 004°53'4 7.3
2018-Jun-12 00:30N 48°21' W 004°48'1 0.1
2018-Jun-11 12:45N 48°22' W 004°47'0 0.1
2018-Jun-11 12:30N 48°22' W 004°47'3 5.4
2018-Jun-11 12:00N 48°20' W 004°50'4 8.7
2018-Jun-11 11:30N 48°20' W 004°57'17 1.8
2018-Jun-11 02:22N 48°26' W 005°19'4 8.5
2018-Jun-11 01:50N 48°25' W 005°13'3 9.4
2018-Jun-11 01:30N 48°24' W 005°08'5 9.3
2018-Jun-11 01:00N 48°22' W 005°02'4 8.7
2018-Jun-11 00:30N 48°22' W 004°56'4 7.9
2018-Jun-11 00:00N 48°22' W 004°50'2 0.2
2018-Jun-10 14:50N 48°22' W 004°47'5 5.6
2018-Jun-10 14:00N 48°22' W 004°54'6 0.5
2018-Jun-10 01:34N 48°19' W 005°02'1 8.4
2018-Jun-10 01:30N 48°19' W 005°01'4 8.6
2018-Jun-10 01:00N 48°19' W 004°55'4 8.4
2018-Jun-10 00:30N 48°21' W 004°49'2 0.2
2018-Jun-09 14:31N 48°22' W 004°47'0 0.1
2018-Jun-09 14:29N 48°22' W 004°47'0 0.0
2018-Jun-09 13:59N 48°22' W 004°47'4 7.4
2018-Jun-09 13:30N 48°22' W 004°52'4 8.1
2018-Jun-09 12:57N 48°22' W 004°59'5 0.4
2018-Jun-09 01:41N 48°23' W 005°06'2 8.9
2018-Jun-09 01:26N 48°22' W 005°03'4 8.9
2018-Jun-09 01:00N 48°21' W 004°58'5 9.4
2018-Jun-09 00:30N 48°22' W 004°51'2 0.2
2018-Jun-08 14:27N 48°22' W 004°47'1 2.5
2018-Jun-08 14:00N 48°22' W 004°48'4 8.1
2018-Jun-08 13:30N 48°22' W 004°55'10 0.9
2018-Jun-08 02:01N 48°17' W 005°09'0 8.9
2018-Jun-08 01:58N 48°17' W 005°08'4 8.9
2018-Jun-08 01:30N 48°18' W 005°02'4 8.8
2018-Jun-08 01:00N 48°19' W 004°56'5 9.2
2018-Jun-08 00:30N 48°21' W 004°49'2 0.2
2018-Jun-07 14:54N 48°22' W 004°47'1 2.5
2018-Jun-07 14:30N 48°22' W 004°48'4 8.1
2018-Jun-07 14:00N 48°22' W 004°54'4 8.3
2018-Jun-07 13:30N 48°22' W 005°01'5 9.0
2018-Jun-07 13:00N 48°24' W 005°07'  

Dump ship's entire track history